Lavras, Brazil
Current Conditions -  °F | °C
As of 8:00 PM on Sunday 23 Nov 2014 (Local Time) from SBBQ Reporting Station
Moderate Rain Moderate Rain  
Wind Chill: 66°   Ceiling: 2500
Heat Index: 66°   Visibility: 2.5mi
Dew Point: 64°   Wind: 5mph
Humidity: 94%   Direction: 40°NE
Pressure: 30.12"   Gusts: NA
Location:  21.25°S, 45°W
Report Text: SBBQ 232200Z 04004KT 4000 RA SCT010 OVC025 19/18 Q1020
Loading
Personal Weather Stations






























Interactive Weather Map New forecast layout! Learn more

10-Day Weather Forecast

Advertisements
Track Severe Weather on mobile